Dn Vatan — TCZN6 — position and weather

sailwx.info

Track history (hours):
 
Tides and Currents Weather Stations Pressure Air Temp Water Temp Dewpoint Dewpoint Depression Visibility Wind Speed Wind Dir Waves Ship Positions

Dn Vatan

Last reported at 2014-Jul-28 23:33 UTC. Time now 2014-Jul-29 16:53 UTC.
Position N 36°45' E 000°57'.

Length 196 m; draft 6.6 m.

Type: Cargo ship. MMSI: 270991365.

Date/timePositionNaut miles runAvg speedWind from/ knotsBaromVisibWave heightAir tempDewpointWater temp
2014-Jul-28 23:33N 36°45' E 000°57'1613.7
2014-Jul-28 22:23N 36°42' E 000°37'1113.4
2014-Jul-28 21:32N 36°40' E 000°23'1713.8
2014-Jul-28 20:18N 36°38' E 000°02'1114.4
2014-Jul-28 19:33N 36°36' W 000°11'1414.4
2014-Jul-28 18:33N 36°34' W 000°29'1714.1
2014-Jul-28 17:21N 36°31' W 000°50'1113.9
2014-Jul-28 16:33N 36°30' W 001°03'1513.7
2014-Jul-28 15:26N 36°28' W 001°22'1213.5
2014-Jul-28 14:31N 36°26' W 001°37'22514.0
2014-Jul-27 22:30N 35°53' W 006°13'1313.4
2014-Jul-27 21:33N 35°56' W 006°28'1413.7
2014-Jul-27 20:33N 35°60' W 006°44'1313.4
2014-Jul-27 19:33N 36°03' W 007°00'1413.3
2014-Jul-27 18:32N 36°07' W 007°17'1313.7
2014-Jul-27 17:33N 36°10' W 007°33'1713.4
2014-Jul-27 16:18N 36°15' W 007°53'1013.5
2014-Jul-27 15:32N 36°18' W 008°05'1513.8
2014-Jul-27 14:28N 36°21' W 008°23'1313.6
2014-Jul-27 13:32N 36°25' W 008°38'1813.7
2014-Jul-27 12:12N 36°30' W 008°60'1113.8
2014-Jul-27 11:25N 36°33' W 009°13'1213.5
2014-Jul-27 10:33N 36°40' W 009°24'1413.4
2014-Jul-27 09:32N 36°51' W 009°35'1313.7
2014-Jul-27 08:33N 37°04' W 009°38'1413.9
2014-Jul-27 07:33N 37°17' W 009°42'1414.1
2014-Jul-27 06:34N 37°31' W 009°46'1413.9
2014-Jul-27 05:33N 37°45' W 009°50'1413.7
2014-Jul-27 04:33N 37°58' W 009°53'1413.6
2014-Jul-27 03:33N 38°11' W 009°58'1413.7
2014-Jul-27 02:30N 38°25' W 010°02'1313.8
2014-Jul-27 01:33N 38°38' W 010°06'1413.8
2014-Jul-27 00:32N 38°52' W 010°06'1413.8
2014-Jul-26 23:33N 39°06' W 010°06'1413.8
2014-Jul-26 22:33N 39°20' W 010°07'1713.8
2014-Jul-26 21:20N 39°36' W 010°07'1113.9
2014-Jul-26 20:33N 39°47' W 010°07'1413.5
2014-Jul-26 19:33N 40°01' W 010°08'1413.9
2014-Jul-26 18:30N 40°15' W 010°08'64912.9
2014-Jul-24 16:18N 49°53' W 003°10'912.6
2014-Jul-24 15:33N 49°58' W 002°58'1413.5
2014-Jul-24 14:33N 50°03' W 002°39'1514.8
2014-Jul-24 13:33N 50°07' W 002°16'1615.9
2014-Jul-24 12:32N 50°11' W 001°52'2116.1
2014-Jul-24 11:12N 50°16' W 001°20'1415.3
2014-Jul-24 10:18N 50°20' W 000°59'2313.4
2014-Jul-24 08:34N 50°26' W 000°23'1312.3
2014-Jul-24 07:31N 50°30' W 000°04'1312.1
2014-Jul-24 06:25N 50°34' E 000°16'1112.6
2014-Jul-24 05:33N 50°37' E 000°32'1413.9
2014-Jul-24 04:34N 50°44' E 000°51'1514.8
2014-Jul-24 03:33N 50°51' E 001°11'1515.0
2014-Jul-24 02:34N 51°02' E 001°28'1313.5
2014-Jul-24 01:34N 51°11' E 001°43'1212.4
2014-Jul-24 00:33N 51°22' E 001°52'1211.9
2014-Jul-23 23:33N 51°32' E 002°03'1212.1
2014-Jul-23 22:33N 51°41' E 002°17'1312.6
2014-Jul-23 21:34N 51°51' E 002°30'1413.6
2014-Jul-23 20:33N 52°03' E 002°37'1514.6
2014-Jul-23 19:33N 52°17' E 002°44'1514.7
2014-Jul-23 18:33N 52°30' E 002°57'1514.7
2014-Jul-23 17:33N 52°43' E 003°07'1414.2
2014-Jul-23 16:33N 52°56' E 003°16'1313.4
2014-Jul-23 15:33N 53°09' E 003°23'1312.9
2014-Jul-23 14:33N 53°22' E 003°29'1312.5
2014-Jul-23 13:33N 53°34' E 003°35'1212.3
2014-Jul-23 12:33N 53°45' E 003°43'1413.6
2014-Jul-23 11:33N 53°53' E 004°01'1413.6
2014-Jul-23 10:33N 54°03' E 004°17'1413.8
2014-Jul-23 09:33N 54°14' E 004°31'1413.8
2014-Jul-23 08:33N 54°25' E 004°45'1413.5
2014-Jul-23 07:30N 54°37' E 004°59'5513.2
2014-Jul-23 03:20N 55°21' E 005°56'3813.5
2014-Jul-23 00:32N 55°53' E 006°32'1313.6
2014-Jul-22 23:33N 56°04' E 006°45'13413.1
2014-Jul-22 13:23N 57°40' E 009°34'1113.2
2014-Jul-22 12:33N 57°42' E 009°54'1313.0
2014-Jul-22 11:33N 57°46' E 010°18'1312.9
2014-Jul-22 10:33N 57°48' E 010°42'1010.0
2014-Jul-22 09:33N 57°43' E 010°57'1212.0
2014-Jul-22 08:33N 57°35' E 011°14'1313.3
2014-Jul-22 07:34N 57°24' E 011°30'1313.4
2014-Jul-22 06:34N 57°12' E 011°37'1313.3
2014-Jul-22 05:33N 56°59' E 011°45'1312.7
2014-Jul-22 04:33N 56°47' E 011°52'1211.6
2014-Jul-22 03:33N 56°36' E 011°44'1312.5
2014-Jul-22 02:33N 56°26' E 011°32'1312.9
2014-Jul-22 01:33N 56°14' E 011°21'1413.8
2014-Jul-22 00:32N 56°03' E 011°07'2612.8
2014-Jul-21 22:31N 55°39' E 010°47'3112.3
2014-Jul-21 20:02N 55°10' E 011°00'1013.9
2014-Jul-21 19:17N 54°59' E 010°59'1213.9
2014-Jul-21 18:24N 54°48' E 010°50'1011.3
2014-Jul-21 17:31N 54°38' E 010°54'1313.9
2014-Jul-21 16:33N 54°35' E 011°16'1414.4
2014-Jul-21 15:33N 54°29' E 011°38'1413.8
2014-Jul-21 14:33N 54°27' E 012°02'10 9.9
2014-Jul-21 13:34N 54°33' E 012°15'8 7.9
2014-Jul-21 12:34N 54°39' E 012°23'1211.8
2014-Jul-21 11:33N 54°45' E 012°41'1313.1
2014-Jul-21 10:33N 54°52' E 013°01'1313.0
2014-Jul-21 09:33N 54°56' E 013°22'1313.2
2014-Jul-21 08:33N 55°00' E 013°44'1413.6
2014-Jul-21 07:33N 55°06' E 014°05'1413.6
2014-Jul-21 06:33N 55°16' E 014°21'1413.6
2014-Jul-21 05:33N 55°27' E 014°35'1313.2
2014-Jul-21 04:33N 55°33' E 014°56'1313.5
2014-Jul-21 03:33N 55°39' E 015°18'1413.6
2014-Jul-21 02:34N 55°42' E 015°41'1413.6
2014-Jul-21 01:33N 55°46' E 016°04'1413.7
2014-Jul-21 00:34N 55°49' E 016°28'1413.5
2014-Jul-20 23:34N 55°52' E 016°51'1313.5
2014-Jul-20 22:34N 55°56' E 017°15'1313.3
2014-Jul-20 21:33N 55°59' E 017°38'1413.6
2014-Jul-20 20:34N 56°05' E 017°59'1313.5
2014-Jul-20 19:34N 56°12' E 018°20'1313.4
2014-Jul-20 18:34N 56°20' E 018°39'1313.3
2014-Jul-20 17:34N 56°31' E 018°54'1413.7
2014-Jul-20 16:33N 56°43' E 019°06'1413.8
2014-Jul-20 15:34N 56°55' E 019°17'1413.7
2014-Jul-20 14:33N 57°07' E 019°28'1312.6
2014-Jul-20 13:33N 57°18' E 019°39'1313.4
2014-Jul-20 12:33N 57°30' E 019°51'14212.5
2014-Jul-20 01:13N 59°19' E 022°46'913.1
2014-Jul-20 00:30N 59°21' E 023°04'1213.0
2014-Jul-19 23:33N 59°23' E 023°28'1312.7
2014-Jul-19 22:32N 59°23' E 023°53'6 6.6
2014-Jul-19 21:33N 59°20' E 024°04'0 0.0
2014-Jul-19 04:31N 59°20' E 024°04'0 0.0
2014-Jul-19 02:31N 59°20' E 024°04'0 0.0
2014-Jul-19 01:31N 59°20' E 024°04'0 0.0
2014-Jul-19 00:31N 59°20' E 024°04'  
Track history (hours):
 
Tides and Currents Weather Stations Pressure Air Temp Water Temp Dewpoint Dewpoint Depression Visibility Wind Speed Wind Dir Waves Ship Positions

Dn Vatan

Last reported at 2014-Jul-28 23:33 UTC. Time now 2014-Jul-29 16:53 UTC.
Position N 36°45' E 000°57'.

Length 196 m; draft 6.6 m.

Type: Cargo ship. MMSI: 270991365.

Date/timePositionNaut miles runAvg speedWind from/ knotsBaromVisibWave heightAir tempDewpointWater temp
2014-Jul-28 23:33N 36°45' E 000°57'1613.7
2014-Jul-28 22:23N 36°42' E 000°37'1113.4
2014-Jul-28 21:32N 36°40' E 000°23'1713.8
2014-Jul-28 20:18N 36°38' E 000°02'1114.4
2014-Jul-28 19:33N 36°36' W 000°11'1414.4
2014-Jul-28 18:33N 36°34' W 000°29'1714.1
2014-Jul-28 17:21N 36°31' W 000°50'1113.9
2014-Jul-28 16:33N 36°30' W 001°03'1513.7
2014-Jul-28 15:26N 36°28' W 001°22'1213.5
2014-Jul-28 14:31N 36°26' W 001°37'22514.0
2014-Jul-27 22:30N 35°53' W 006°13'1313.4
2014-Jul-27 21:33N 35°56' W 006°28'1413.7
2014-Jul-27 20:33N 35°60' W 006°44'1313.4
2014-Jul-27 19:33N 36°03' W 007°00'1413.3
2014-Jul-27 18:32N 36°07' W 007°17'1313.7
2014-Jul-27 17:33N 36°10' W 007°33'1713.4
2014-Jul-27 16:18N 36°15' W 007°53'1013.5
2014-Jul-27 15:32N 36°18' W 008°05'1513.8
2014-Jul-27 14:28N 36°21' W 008°23'1313.6
2014-Jul-27 13:32N 36°25' W 008°38'1813.7
2014-Jul-27 12:12N 36°30' W 008°60'1113.8
2014-Jul-27 11:25N 36°33' W 009°13'1213.5
2014-Jul-27 10:33N 36°40' W 009°24'1413.4
2014-Jul-27 09:32N 36°51' W 009°35'1313.7
2014-Jul-27 08:33N 37°04' W 009°38'1413.9
2014-Jul-27 07:33N 37°17' W 009°42'1414.1
2014-Jul-27 06:34N 37°31' W 009°46'1413.9
2014-Jul-27 05:33N 37°45' W 009°50'1413.7
2014-Jul-27 04:33N 37°58' W 009°53'1413.6
2014-Jul-27 03:33N 38°11' W 009°58'1413.7
2014-Jul-27 02:30N 38°25' W 010°02'1313.8
2014-Jul-27 01:33N 38°38' W 010°06'1413.8
2014-Jul-27 00:32N 38°52' W 010°06'1413.8
2014-Jul-26 23:33N 39°06' W 010°06'1413.8
2014-Jul-26 22:33N 39°20' W 010°07'1713.8
2014-Jul-26 21:20N 39°36' W 010°07'1113.9
2014-Jul-26 20:33N 39°47' W 010°07'1413.5
2014-Jul-26 19:33N 40°01' W 010°08'1413.9
2014-Jul-26 18:30N 40°15' W 010°08'64912.9
2014-Jul-24 16:18N 49°53' W 003°10'912.6
2014-Jul-24 15:33N 49°58' W 002°58'1413.5
2014-Jul-24 14:33N 50°03' W 002°39'1514.8
2014-Jul-24 13:33N 50°07' W 002°16'1615.9
2014-Jul-24 12:32N 50°11' W 001°52'2116.1
2014-Jul-24 11:12N 50°16' W 001°20'1415.3
2014-Jul-24 10:18N 50°20' W 000°59'2313.4
2014-Jul-24 08:34N 50°26' W 000°23'1312.3
2014-Jul-24 07:31N 50°30' W 000°04'1312.1
2014-Jul-24 06:25N 50°34' E 000°16'1112.6
2014-Jul-24 05:33N 50°37' E 000°32'1413.9
2014-Jul-24 04:34N 50°44' E 000°51'1514.8
2014-Jul-24 03:33N 50°51' E 001°11'1515.0
2014-Jul-24 02:34N 51°02' E 001°28'1313.5
2014-Jul-24 01:34N 51°11' E 001°43'1212.4
2014-Jul-24 00:33N 51°22' E 001°52'1211.9
2014-Jul-23 23:33N 51°32' E 002°03'1212.1
2014-Jul-23 22:33N 51°41' E 002°17'1312.6
2014-Jul-23 21:34N 51°51' E 002°30'1413.6
2014-Jul-23 20:33N 52°03' E 002°37'1514.6
2014-Jul-23 19:33N 52°17' E 002°44'1514.7
2014-Jul-23 18:33N 52°30' E 002°57'1514.7
2014-Jul-23 17:33N 52°43' E 003°07'1414.2
2014-Jul-23 16:33N 52°56' E 003°16'1313.4
2014-Jul-23 15:33N 53°09' E 003°23'1312.9
2014-Jul-23 14:33N 53°22' E 003°29'1312.5
2014-Jul-23 13:33N 53°34' E 003°35'1212.3
2014-Jul-23 12:33N 53°45' E 003°43'1413.6
2014-Jul-23 11:33N 53°53' E 004°01'1413.6
2014-Jul-23 10:33N 54°03' E 004°17'1413.8
2014-Jul-23 09:33N 54°14' E 004°31'1413.8
2014-Jul-23 08:33N 54°25' E 004°45'1413.5
2014-Jul-23 07:30N 54°37' E 004°59'5513.2
2014-Jul-23 03:20N 55°21' E 005°56'3813.5
2014-Jul-23 00:32N 55°53' E 006°32'1313.6
2014-Jul-22 23:33N 56°04' E 006°45'13413.1
2014-Jul-22 13:23N 57°40' E 009°34'1113.2
2014-Jul-22 12:33N 57°42' E 009°54'1313.0
2014-Jul-22 11:33N 57°46' E 010°18'1312.9
2014-Jul-22 10:33N 57°48' E 010°42'1010.0
2014-Jul-22 09:33N 57°43' E 010°57'1212.0
2014-Jul-22 08:33N 57°35' E 011°14'1313.3
2014-Jul-22 07:34N 57°24' E 011°30'1313.4
2014-Jul-22 06:34N 57°12' E 011°37'1313.3
2014-Jul-22 05:33N 56°59' E 011°45'1312.7
2014-Jul-22 04:33N 56°47' E 011°52'1211.6
2014-Jul-22 03:33N 56°36' E 011°44'1312.5
2014-Jul-22 02:33N 56°26' E 011°32'1312.9
2014-Jul-22 01:33N 56°14' E 011°21'1413.8
2014-Jul-22 00:32N 56°03' E 011°07'2612.8
2014-Jul-21 22:31N 55°39' E 010°47'3112.3
2014-Jul-21 20:02N 55°10' E 011°00'1013.9
2014-Jul-21 19:17N 54°59' E 010°59'1213.9
2014-Jul-21 18:24N 54°48' E 010°50'1011.3
2014-Jul-21 17:31N 54°38' E 010°54'1313.9
2014-Jul-21 16:33N 54°35' E 011°16'1414.4
2014-Jul-21 15:33N 54°29' E 011°38'1413.8
2014-Jul-21 14:33N 54°27' E 012°02'10 9.9
2014-Jul-21 13:34N 54°33' E 012°15'8 7.9
2014-Jul-21 12:34N 54°39' E 012°23'1211.8
2014-Jul-21 11:33N 54°45' E 012°41'1313.1
2014-Jul-21 10:33N 54°52' E 013°01'1313.0
2014-Jul-21 09:33N 54°56' E 013°22'1313.2
2014-Jul-21 08:33N 55°00' E 013°44'1413.6
2014-Jul-21 07:33N 55°06' E 014°05'1413.6
2014-Jul-21 06:33N 55°16' E 014°21'1413.6
2014-Jul-21 05:33N 55°27' E 014°35'1313.2
2014-Jul-21 04:33N 55°33' E 014°56'1313.5
2014-Jul-21 03:33N 55°39' E 015°18'1413.6
2014-Jul-21 02:34N 55°42' E 015°41'1413.6
2014-Jul-21 01:33N 55°46' E 016°04'1413.7
2014-Jul-21 00:34N 55°49' E 016°28'1413.5
2014-Jul-20 23:34N 55°52' E 016°51'1313.5
2014-Jul-20 22:34N 55°56' E 017°15'1313.3
2014-Jul-20 21:33N 55°59' E 017°38'1413.6
2014-Jul-20 20:34N 56°05' E 017°59'1313.5
2014-Jul-20 19:34N 56°12' E 018°20'1313.4
2014-Jul-20 18:34N 56°20' E 018°39'1313.3
2014-Jul-20 17:34N 56°31' E 018°54'1413.7
2014-Jul-20 16:33N 56°43' E 019°06'1413.8
2014-Jul-20 15:34N 56°55' E 019°17'1413.7
2014-Jul-20 14:33N 57°07' E 019°28'1312.6
2014-Jul-20 13:33N 57°18' E 019°39'1313.4
2014-Jul-20 12:33N 57°30' E 019°51'14212.5
2014-Jul-20 01:13N 59°19' E 022°46'913.1
2014-Jul-20 00:30N 59°21' E 023°04'1213.0
2014-Jul-19 23:33N 59°23' E 023°28'1312.7
2014-Jul-19 22:32N 59°23' E 023°53'6 6.6
2014-Jul-19 21:33N 59°20' E 024°04'0 0.0
2014-Jul-19 04:31N 59°20' E 024°04'0 0.0
2014-Jul-19 02:31N 59°20' E 024°04'0 0.0
2014-Jul-19 01:31N 59°20' E 024°04'0 0.0
2014-Jul-19 00:31N 59°20' E 024°04'  

Dump ship's entire track history